sensor_id;sensor_type;location;lat;lon;timestamp;temperature;humidity
23301;DHT22;11819;51.394;12.340;2022-07-26T00:02:15;22.50;80.70
23301;DHT22;11819;51.394;12.340;2022-07-26T00:04:40;22.50;80.90
23301;DHT22;11819;51.394;12.340;2022-07-26T00:07:06;22.40;81.10
23301;DHT22;11819;51.394;12.340;2022-07-26T00:09:32;22.30;81.10
23301;DHT22;11819;51.394;12.340;2022-07-26T00:11:57;22.30;81.30
23301;DHT22;11819;51.394;12.340;2022-07-26T00:14:23;22.30;81.40
23301;DHT22;11819;51.394;12.340;2022-07-26T00:16:49;22.30;81.30
23301;DHT22;11819;51.394;12.340;2022-07-26T00:19:15;22.30;81.40
23301;DHT22;11819;51.394;12.340;2022-07-26T00:21:41;22.30;81.40
23301;DHT22;11819;51.394;12.340;2022-07-26T00:24:07;22.30;81.50
23301;DHT22;11819;51.394;12.340;2022-07-26T00:26:33;22.40;82.40
23301;DHT22;11819;51.394;12.340;2022-07-26T00:28:59;22.40;81.60
23301;DHT22;11819;51.394;12.340;2022-07-26T00:31:27;22.40;81.50
23301;DHT22;11819;51.394;12.340;2022-07-26T00:33:53;22.50;81.50
23301;DHT22;11819;51.394;12.340;2022-07-26T00:36:19;22.50;82.20
23301;DHT22;11819;51.394;12.340;2022-07-26T00:38:44;22.60;81.30
23301;DHT22;11819;51.394;12.340;2022-07-26T00:41:10;22.60;81.30
23301;DHT22;11819;51.394;12.340;2022-07-26T00:43:35;22.60;81.30
23301;DHT22;11819;51.394;12.340;2022-07-26T00:46:01;22.60;81.30
23301;DHT22;11819;51.394;12.340;2022-07-26T00:48:27;22.60;81.20
23301;DHT22;11819;51.394;12.340;2022-07-26T00:50:53;22.60;80.90
23301;DHT22;11819;51.394;12.340;2022-07-26T00:53:21;22.60;80.90
23301;DHT22;11819;51.394;12.340;2022-07-26T00:55:50;22.60;80.90
23301;DHT22;11819;51.394;12.340;2022-07-26T00:58:17;22.60;80.80
23301;DHT22;11819;51.394;12.340;2022-07-26T01:00:43;22.60;80.70
23301;DHT22;11819;51.394;12.340;2022-07-26T01:03:08;22.60;80.80
23301;DHT22;11819;51.394;12.340;2022-07-26T01:05:35;22.60;80.90
23301;DHT22;11819;51.394;12.340;2022-07-26T01:08:01;22.60;80.80
23301;DHT22;11819;51.394;12.340;2022-07-26T01:10:26;22.60;80.90
23301;DHT22;11819;51.394;12.340;2022-07-26T01:12:52;22.60;81.00
23301;DHT22;11819;51.394;12.340;2022-07-26T01:15:18;22.60;81.20
23301;DHT22;11819;51.394;12.340;2022-07-26T01:17:44;22.60;81.10
23301;DHT22;11819;51.394;12.340;2022-07-26T01:20:11;22.60;81.00
23301;DHT22;11819;51.394;12.340;2022-07-26T01:22:37;22.60;81.00
23301;DHT22;11819;51.394;12.340;2022-07-26T01:25:04;22.50;80.90
23301;DHT22;11819;51.394;12.340;2022-07-26T01:27:30;22.50;81.00
23301;DHT22;11819;51.394;12.340;2022-07-26T01:29:55;22.50;81.20
23301;DHT22;11819;51.394;12.340;2022-07-26T01:32:21;22.50;81.20
23301;DHT22;11819;51.394;12.340;2022-07-26T01:34:47;22.40;81.20
23301;DHT22;11819;51.394;12.340;2022-07-26T01:37:12;22.40;81.40
23301;DHT22;11819;51.394;12.340;2022-07-26T01:39:38;22.40;81.50
23301;DHT22;11819;51.394;12.340;2022-07-26T01:42:04;22.40;81.60
23301;DHT22;11819;51.394;12.340;2022-07-26T01:44:30;22.30;81.70
23301;DHT22;11819;51.394;12.340;2022-07-26T01:46:55;22.30;81.90
23301;DHT22;11819;51.394;12.340;2022-07-26T01:49:21;22.30;82.10
23301;DHT22;11819;51.394;12.340;2022-07-26T01:51:47;22.30;82.20
23301;DHT22;11819;51.394;12.340;2022-07-26T01:54:12;22.30;82.20
23301;DHT22;11819;51.394;12.340;2022-07-26T01:56:38;22.30;82.40
23301;DHT22;11819;51.394;12.340;2022-07-26T01:59:03;22.30;82.40
23301;DHT22;11819;51.394;12.340;2022-07-26T02:01:29;22.30;82.50
23301;DHT22;11819;51.394;12.340;2022-07-26T02:03:55;22.30;82.30
23301;DHT22;11819;51.394;12.340;2022-07-26T02:06:21;22.30;82.30
23301;DHT22;11819;51.394;12.340;2022-07-26T02:08:46;22.30;82.20
23301;DHT22;11819;51.394;12.340;2022-07-26T02:11:12;22.20;82.10
23301;DHT22;11819;51.394;12.340;2022-07-26T02:13:39;22.20;82.20
23301;DHT22;11819;51.394;12.340;2022-07-26T02:16:13;22.30;82.40
23301;DHT22;11819;51.394;12.340;2022-07-26T02:18:40;22.30;82.40
23301;DHT22;11819;51.394;12.340;2022-07-26T02:21:07;22.30;82.40
23301;DHT22;11819;51.394;12.340;2022-07-26T02:23:35;22.20;82.30
23301;DHT22;11819;51.394;12.340;2022-07-26T02:26:01;22.30;82.30
23301;DHT22;11819;51.394;12.340;2022-07-26T02:28:27;22.20;82.30
23301;DHT22;11819;51.394;12.340;2022-07-26T02:30:52;22.10;82.20
23301;DHT22;11819;51.394;12.340;2022-07-26T02:33:19;22.10;82.30
23301;DHT22;11819;51.394;12.340;2022-07-26T02:35:45;22.10;82.40
23301;DHT22;11819;51.394;12.340;2022-07-26T02:38:13;22.10;82.40
23301;DHT22;11819;51.394;12.340;2022-07-26T02:40:39;22.00;82.20
23301;DHT22;11819;51.394;12.340;2022-07-26T02:43:06;22.00;82.20
23301;DHT22;11819;51.394;12.340;2022-07-26T02:45:32;21.90;82.40
23301;DHT22;11819;51.394;12.340;2022-07-26T02:47:58;21.90;82.50
23301;DHT22;11819;51.394;12.340;2022-07-26T02:50:26;21.90;82.50
23301;DHT22;11819;51.394;12.340;2022-07-26T02:52:52;21.90;82.40
23301;DHT22;11819;51.394;12.340;2022-07-26T02:55:20;21.90;82.50
23301;DHT22;11819;51.394;12.340;2022-07-26T02:57:46;21.90;82.40
23301;DHT22;11819;51.394;12.340;2022-07-26T03:00:13;21.80;82.30
23301;DHT22;11819;51.394;12.340;2022-07-26T03:02:39;21.80;82.40
23301;DHT22;11819;51.394;12.340;2022-07-26T03:05:05;21.80;82.40
23301;DHT22;11819;51.394;12.340;2022-07-26T03:07:31;21.80;82.50
23301;DHT22;11819;51.394;12.340;2022-07-26T03:09:57;21.70;82.40
23301;DHT22;11819;51.394;12.340;2022-07-26T03:12:23;21.80;82.30
23301;DHT22;11819;51.394;12.340;2022-07-26T03:14:49;21.80;82.20
23301;DHT22;11819;51.394;12.340;2022-07-26T03:17:15;21.70;81.90
23301;DHT22;11819;51.394;12.340;2022-07-26T03:19:41;21.70;81.90
23301;DHT22;11819;51.394;12.340;2022-07-26T03:22:06;21.60;81.90
23301;DHT22;11819;51.394;12.340;2022-07-26T03:24:32;21.60;81.90
23301;DHT22;11819;51.394;12.340;2022-07-26T03:26:58;21.60;81.90
23301;DHT22;11819;51.394;12.340;2022-07-26T03:29:24;21.60;81.80
23301;DHT22;11819;51.394;12.340;2022-07-26T03:31:50;21.60;81.60
23301;DHT22;11819;51.394;12.340;2022-07-26T03:34:16;21.60;81.40
23301;DHT22;11819;51.394;12.340;2022-07-26T03:36:42;21.50;81.20
23301;DHT22;11819;51.394;12.340;2022-07-26T03:39:11;21.50;81.10
23301;DHT22;11819;51.394;12.340;2022-07-26T03:41:36;21.40;80.80
23301;DHT22;11819;51.394;12.340;2022-07-26T03:44:02;21.30;80.80
23301;DHT22;11819;51.394;12.340;2022-07-26T03:46:28;21.20;80.90
23301;DHT22;11819;51.394;12.340;2022-07-26T03:48:54;21.20;81.00
23301;DHT22;11819;51.394;12.340;2022-07-26T03:51:20;21.10;81.10
23301;DHT22;11819;51.394;12.340;2022-07-26T03:53:45;21.00;81.00
23301;DHT22;11819;51.394;12.340;2022-07-26T03:56:11;21.00;81.00
23301;DHT22;11819;51.394;12.340;2022-07-26T03:58:57;21.00;80.80
23301;DHT22;11819;51.394;12.340;2022-07-26T04:01:24;20.90;80.60
23301;DHT22;11819;51.394;12.340;2022-07-26T04:03:49;20.90;80.70
23301;DHT22;11819;51.394;12.340;2022-07-26T04:06:15;20.90;80.50
23301;DHT22;11819;51.394;12.340;2022-07-26T04:08:40;20.90;80.40
23301;DHT22;11819;51.394;12.340;2022-07-26T04:11:06;20.90;80.30
23301;DHT22;11819;51.394;12.340;2022-07-26T04:13:32;20.90;80.10
23301;DHT22;11819;51.394;12.340;2022-07-26T04:15:59;21.00;80.10
23301;DHT22;11819;51.394;12.340;2022-07-26T04:18:25;21.00;79.80
23301;DHT22;11819;51.394;12.340;2022-07-26T04:20:51;21.00;79.60
23301;DHT22;11819;51.394;12.340;2022-07-26T04:23:16;21.00;79.60
23301;DHT22;11819;51.394;12.340;2022-07-26T04:25:43;21.00;79.40
23301;DHT22;11819;51.394;12.340;2022-07-26T04:28:10;21.00;79.10
23301;DHT22;11819;51.394;12.340;2022-07-26T04:30:36;21.00;79.20
23301;DHT22;11819;51.394;12.340;2022-07-26T04:33:01;21.00;79.30
23301;DHT22;11819;51.394;12.340;2022-07-26T04:35:27;20.90;79.10
23301;DHT22;11819;51.394;12.340;2022-07-26T04:37:53;20.90;79.20
23301;DHT22;11819;51.394;12.340;2022-07-26T04:40:20;20.90;79.10
23301;DHT22;11819;51.394;12.340;2022-07-26T04:42:46;20.90;79.00
23301;DHT22;11819;51.394;12.340;2022-07-26T04:45:12;20.90;78.90
23301;DHT22;11819;51.394;12.340;2022-07-26T04:47:46;20.90;78.60
23301;DHT22;11819;51.394;12.340;2022-07-26T04:50:14;20.90;78.60
23301;DHT22;11819;51.394;12.340;2022-07-26T04:52:40;20.90;78.50
23301;DHT22;11819;51.394;12.340;2022-07-26T04:55:06;20.90;78.30
23301;DHT22;11819;51.394;12.340;2022-07-26T04:57:33;20.80;78.30
23301;DHT22;11819;51.394;12.340;2022-07-26T04:59:59;20.80;78.30
23301;DHT22;11819;51.394;12.340;2022-07-26T05:02:24;20.80;78.20
23301;DHT22;11819;51.394;12.340;2022-07-26T05:04:50;20.80;78.00
23301;DHT22;11819;51.394;12.340;2022-07-26T05:07:16;20.80;77.80
23301;DHT22;11819;51.394;12.340;2022-07-26T05:09:41;20.70;77.90
23301;DHT22;11819;51.394;12.340;2022-07-26T05:12:07;20.60;77.90
23301;DHT22;11819;51.394;12.340;2022-07-26T05:14:33;20.60;77.90
23301;DHT22;11819;51.394;12.340;2022-07-26T05:16:59;20.60;78.00
23301;DHT22;11819;51.394;12.340;2022-07-26T05:19:25;20.50;77.90
23301;DHT22;11819;51.394;12.340;2022-07-26T05:21:50;20.50;77.90
23301;DHT22;11819;51.394;12.340;2022-07-26T05:24:16;20.60;78.00
23301;DHT22;11819;51.394;12.340;2022-07-26T05:26:42;20.60;77.90
23301;DHT22;11819;51.394;12.340;2022-07-26T05:29:07;20.60;77.90
23301;DHT22;11819;51.394;12.340;2022-07-26T05:31:33;20.60;77.50
23301;DHT22;11819;51.394;12.340;2022-07-26T05:33:59;20.60;77.30
23301;DHT22;11819;51.394;12.340;2022-07-26T05:36:24;20.60;77.00
23301;DHT22;11819;51.394;12.340;2022-07-26T05:38:50;20.60;76.90
23301;DHT22;11819;51.394;12.340;2022-07-26T05:41:15;20.70;76.60
23301;DHT22;11819;51.394;12.340;2022-07-26T05:43:41;20.70;76.30
23301;DHT22;11819;51.394;12.340;2022-07-26T05:46:07;20.70;75.90
23301;DHT22;11819;51.394;12.340;2022-07-26T05:48:33;20.80;75.60
23301;DHT22;11819;51.394;12.340;2022-07-26T05:50:58;20.80;75.90
23301;DHT22;11819;51.394;12.340;2022-07-26T05:53:25;20.80;74.60
23301;DHT22;11819;51.394;12.340;2022-07-26T05:55:50;20.80;74.40
23301;DHT22;11819;51.394;12.340;2022-07-26T05:58:16;20.80;74.30
23301;DHT22;11819;51.394;12.340;2022-07-26T06:00:42;20.90;74.10
23301;DHT22;11819;51.394;12.340;2022-07-26T06:03:07;20.90;73.90
23301;DHT22;11819;51.394;12.340;2022-07-26T06:05:53;21.00;73.90
23301;DHT22;11819;51.394;12.340;2022-07-26T06:08:19;21.00;73.60
23301;DHT22;11819;51.394;12.340;2022-07-26T06:10:46;21.00;73.60
23301;DHT22;11819;51.394;12.340;2022-07-26T06:13:12;21.10;73.40
23301;DHT22;11819;51.394;12.340;2022-07-26T06:15:38;21.10;73.10
23301;DHT22;11819;51.394;12.340;2022-07-26T06:18:04;21.10;73.00
23301;DHT22;11819;51.394;12.340;2022-07-26T06:20:30;21.10;72.90
23301;DHT22;11819;51.394;12.340;2022-07-26T06:22:56;21.10;72.70
23301;DHT22;11819;51.394;12.340;2022-07-26T06:25:25;21.10;72.50
23301;DHT22;11819;51.394;12.340;2022-07-26T06:27:52;21.10;72.50
23301;DHT22;11819;51.394;12.340;2022-07-26T06:30:18;21.10;72.50
23301;DHT22;11819;51.394;12.340;2022-07-26T06:32:43;21.10;72.20
23301;DHT22;11819;51.394;12.340;2022-07-26T06:35:13;21.10;71.90
23301;DHT22;11819;51.394;12.340;2022-07-26T06:37:40;21.10;71.70
23301;DHT22;11819;51.394;12.340;2022-07-26T06:40:07;21.10;71.90
23301;DHT22;11819;51.394;12.340;2022-07-26T06:42:33;21.10;71.80
23301;DHT22;11819;51.394;12.340;2022-07-26T06:45:00;21.10;71.60
23301;DHT22;11819;51.394;12.340;2022-07-26T06:47:26;21.10;71.50
23301;DHT22;11819;51.394;12.340;2022-07-26T06:49:51;21.10;71.50
23301;DHT22;11819;51.394;12.340;2022-07-26T06:52:17;21.10;71.50
23301;DHT22;11819;51.394;12.340;2022-07-26T06:54:43;21.10;71.60
23301;DHT22;11819;51.394;12.340;2022-07-26T06:57:08;21.10;71.60
23301;DHT22;11819;51.394;12.340;2022-07-26T06:59:35;21.20;71.50
23301;DHT22;11819;51.394;12.340;2022-07-26T07:02:00;21.30;71.40
23301;DHT22;11819;51.394;12.340;2022-07-26T07:04:27;21.30;71.00
23301;DHT22;11819;51.394;12.340;2022-07-26T07:06:54;21.30;70.80
23301;DHT22;11819;51.394;12.340;2022-07-26T07:09:20;21.40;70.50
23301;DHT22;11819;51.394;12.340;2022-07-26T07:11:45;21.40;70.20
23301;DHT22;11819;51.394;12.340;2022-07-26T07:14:13;21.40;69.90
23301;DHT22;11819;51.394;12.340;2022-07-26T07:16:39;21.40;69.10
23301;DHT22;11819;51.394;12.340;2022-07-26T07:19:05;21.30;68.70
23301;DHT22;11819;51.394;12.340;2022-07-26T07:21:31;21.30;68.30
23301;DHT22;11819;51.394;12.340;2022-07-26T07:23:58;21.40;68.30
23301;DHT22;11819;51.394;12.340;2022-07-26T07:26:24;21.40;67.70
23301;DHT22;11819;51.394;12.340;2022-07-26T07:28:50;21.40;67.60
23301;DHT22;11819;51.394;12.340;2022-07-26T07:31:15;21.50;67.80
23301;DHT22;11819;51.394;12.340;2022-07-26T07:33:41;21.50;67.80
23301;DHT22;11819;51.394;12.340;2022-07-26T07:36:07;21.60;67.90
23301;DHT22;11819;51.394;12.340;2022-07-26T07:38:33;21.70;68.00
23301;DHT22;11819;51.394;12.340;2022-07-26T07:40:58;21.70;67.70
23301;DHT22;11819;51.394;12.340;2022-07-26T07:43:24;21.80;67.60
23301;DHT22;11819;51.394;12.340;2022-07-26T07:45:50;21.80;67.50
23301;DHT22;11819;51.394;12.340;2022-07-26T07:48:15;21.90;67.30
23301;DHT22;11819;51.394;12.340;2022-07-26T07:50:41;21.90;67.10
23301;DHT22;11819;51.394;12.340;2022-07-26T07:53:06;21.90;66.80
23301;DHT22;11819;51.394;12.340;2022-07-26T07:55:32;22.00;66.30
23301;DHT22;11819;51.394;12.340;2022-07-26T07:57:58;21.90;65.70
23301;DHT22;11819;51.394;12.340;2022-07-26T08:00:23;21.90;65.10
23301;DHT22;11819;51.394;12.340;2022-07-26T08:02:50;22.00;65.10
23301;DHT22;11819;51.394;12.340;2022-07-26T08:05:15;22.00;64.80
23301;DHT22;11819;51.394;12.340;2022-07-26T08:07:41;22.00;64.70
23301;DHT22;11819;51.394;12.340;2022-07-26T08:10:07;22.00;64.20
23301;DHT22;11819;51.394;12.340;2022-07-26T08:12:33;22.00;64.20
23301;DHT22;11819;51.394;12.340;2022-07-26T08:14:59;22.00;64.00
23301;DHT22;11819;51.394;12.340;2022-07-26T08:17:25;22.10;64.00
23301;DHT22;11819;51.394;12.340;2022-07-26T08:19:51;22.10;63.90
23301;DHT22;11819;51.394;12.340;2022-07-26T08:22:16;22.10;63.70
23301;DHT22;11819;51.394;12.340;2022-07-26T08:24:42;22.10;63.60
23301;DHT22;11819;51.394;12.340;2022-07-26T08:27:09;22.10;63.50
23301;DHT22;11819;51.394;12.340;2022-07-26T08:29:35;22.10;63.10
23301;DHT22;11819;51.394;12.340;2022-07-26T08:32:01;22.20;63.20
23301;DHT22;11819;51.394;12.340;2022-07-26T08:34:26;22.20;63.10
23301;DHT22;11819;51.394;12.340;2022-07-26T08:36:52;22.30;63.10
23301;DHT22;11819;51.394;12.340;2022-07-26T08:39:18;22.30;62.60
23301;DHT22;11819;51.394;12.340;2022-07-26T08:41:43;22.40;62.10
23301;DHT22;11819;51.394;12.340;2022-07-26T08:44:10;22.40;61.90
23301;DHT22;11819;51.394;12.340;2022-07-26T08:46:42;22.40;61.90
23301;DHT22;11819;51.394;12.340;2022-07-26T08:49:10;22.50;62.00
23301;DHT22;11819;51.394;12.340;2022-07-26T08:51:41;22.50;61.40
23301;DHT22;11819;51.394;12.340;2022-07-26T08:54:12;22.60;61.00
23301;DHT22;11819;51.394;12.340;2022-07-26T08:56:49;22.60;60.70
23301;DHT22;11819;51.394;12.340;2022-07-26T08:59:17;22.60;60.60
23301;DHT22;11819;51.394;12.340;2022-07-26T09:04:17;22.60;61.70
23301;DHT22;11819;51.394;12.340;2022-07-26T09:07:06;22.70;60.90
23301;DHT22;11819;51.394;12.340;2022-07-26T09:09:34;22.70;60.30
23301;DHT22;11819;51.394;12.340;2022-07-26T09:12:16;22.70;59.90
23301;DHT22;11819;51.394;12.340;2022-07-26T09:14:43;22.70;59.80
23301;DHT22;11819;51.394;12.340;2022-07-26T09:17:11;22.80;59.60
23301;DHT22;11819;51.394;12.340;2022-07-26T09:19:37;22.80;59.60
23301;DHT22;11819;51.394;12.340;2022-07-26T09:22:09;22.90;59.60
23301;DHT22;11819;51.394;12.340;2022-07-26T09:24:39;22.90;59.40
23301;DHT22;11819;51.394;12.340;2022-07-26T09:27:08;23.00;59.00
23301;DHT22;11819;51.394;12.340;2022-07-26T09:29:51;23.00;58.60
23301;DHT22;11819;51.394;12.340;2022-07-26T09:32:23;23.00;58.20
23301;DHT22;11819;51.394;12.340;2022-07-26T09:34:51;23.00;58.40
23301;DHT22;11819;51.394;12.340;2022-07-26T09:37:17;23.10;58.70
23301;DHT22;11819;51.394;12.340;2022-07-26T09:40:00;23.20;58.70
23301;DHT22;11819;51.394;12.340;2022-07-26T09:42:26;23.20;58.10
23301;DHT22;11819;51.394;12.340;2022-07-26T09:44:53;23.20;57.80
23301;DHT22;11819;51.394;12.340;2022-07-26T09:47:20;23.20;57.90
23301;DHT22;11819;51.394;12.340;2022-07-26T09:49:46;23.20;57.70
23301;DHT22;11819;51.394;12.340;2022-07-26T09:52:17;23.30;57.60
23301;DHT22;11819;51.394;12.340;2022-07-26T09:54:43;23.40;57.60
23301;DHT22;11819;51.394;12.340;2022-07-26T09:57:15;23.40;57.60
23301;DHT22;11819;51.394;12.340;2022-07-26T09:59:41;23.40;57.50
23301;DHT22;11819;51.394;12.340;2022-07-26T10:02:07;23.40;56.60
23301;DHT22;11819;51.394;12.340;2022-07-26T10:04:32;23.40;56.50
23301;DHT22;11819;51.394;12.340;2022-07-26T10:06:58;23.50;56.30
23301;DHT22;11819;51.394;12.340;2022-07-26T10:09:32;23.50;55.90
23301;DHT22;11819;51.394;12.340;2022-07-26T10:12:05;23.50;55.80
23301;DHT22;11819;51.394;12.340;2022-07-26T10:14:36;23.60;55.80
23301;DHT22;11819;51.394;12.340;2022-07-26T10:20:39;23.80;55.50
23301;DHT22;11819;51.394;12.340;2022-07-26T10:22:45;23.90;55.00
23301;DHT22;11819;51.394;12.340;2022-07-26T10:27:53;24.10;54.80
23301;DHT22;11819;51.394;12.340;2022-07-26T10:30:21;24.30;55.20
23301;DHT22;11819;51.394;12.340;2022-07-26T10:38:12;24.60;53.40
23301;DHT22;11819;51.394;12.340;2022-07-26T10:41:24;24.70;52.60
23301;DHT22;11819;51.394;12.340;2022-07-26T10:43:25;24.70;52.30
23301;DHT22;11819;51.394;12.340;2022-07-26T10:48:58;24.70;51.70
23301;DHT22;11819;51.394;12.340;2022-07-26T10:51:25;24.70;51.80
23301;DHT22;11819;51.394;12.340;2022-07-26T10:54:05;24.60;51.80
23301;DHT22;11819;51.394;12.340;2022-07-26T10:56:31;24.40;52.00
23301;DHT22;11819;51.394;12.340;2022-07-26T10:58:57;24.30;52.30
23301;DHT22;11819;51.394;12.340;2022-07-26T11:01:34;24.10;52.60
23301;DHT22;11819;51.394;12.340;2022-07-26T11:04:01;24.00;53.00
23301;DHT22;11819;51.394;12.340;2022-07-26T11:06:28;24.00;53.40
23301;DHT22;11819;51.394;12.340;2022-07-26T11:08:57;24.00;54.00
23301;DHT22;11819;51.394;12.340;2022-07-26T11:11:30;23.90;53.70
23301;DHT22;11819;51.394;12.340;2022-07-26T11:14:09;23.90;53.90
23301;DHT22;11819;51.394;12.340;2022-07-26T11:16:37;23.90;53.90
23301;DHT22;11819;51.394;12.340;2022-07-26T11:19:18;23.90;53.70
23301;DHT22;11819;51.394;12.340;2022-07-26T11:21:46;23.90;53.50
23301;DHT22;11819;51.394;12.340;2022-07-26T11:24:12;23.90;53.40
23301;DHT22;11819;51.394;12.340;2022-07-26T11:26:42;23.90;53.50
23301;DHT22;11819;51.394;12.340;2022-07-26T11:29:08;23.90;53.30
23301;DHT22;11819;51.394;12.340;2022-07-26T11:31:40;24.00;53.40
23301;DHT22;11819;51.394;12.340;2022-07-26T11:34:07;24.10;53.40
23301;DHT22;11819;51.394;12.340;2022-07-26T11:36:35;24.30;53.20
23301;DHT22;11819;51.394;12.340;2022-07-26T11:39:03;24.60;52.80
23301;DHT22;11819;51.394;12.340;2022-07-26T11:41:30;24.70;52.20
23301;DHT22;11819;51.394;12.340;2022-07-26T11:43:56;24.70;52.00
23301;DHT22;11819;51.394;12.340;2022-07-26T11:46:30;24.80;52.00
23301;DHT22;11819;51.394;12.340;2022-07-26T11:48:57;24.70;51.80
23301;DHT22;11819;51.394;12.340;2022-07-26T11:51:24;24.70;51.80
23301;DHT22;11819;51.394;12.340;2022-07-26T11:53:50;24.70;52.00
23301;DHT22;11819;51.394;12.340;2022-07-26T11:56:21;24.70;52.00
23301;DHT22;11819;51.394;12.340;2022-07-26T11:58:49;24.80;51.50
23301;DHT22;11819;51.394;12.340;2022-07-26T12:01:16;25.00;51.00
23301;DHT22;11819;51.394;12.340;2022-07-26T12:03:45;25.10;50.30
23301;DHT22;11819;51.394;12.340;2022-07-26T12:06:17;25.00;50.10
23301;DHT22;11819;51.394;12.340;2022-07-26T12:08:46;25.00;50.10
23301;DHT22;11819;51.394;12.340;2022-07-26T12:11:14;24.90;50.40
23301;DHT22;11819;51.394;12.340;2022-07-26T12:14:00;24.80;50.70
23301;DHT22;11819;51.394;12.340;2022-07-26T12:16:41;24.70;50.90
23301;DHT22;11819;51.394;12.340;2022-07-26T12:19:29;24.60;51.00
23301;DHT22;11819;51.394;12.340;2022-07-26T12:21:57;24.50;51.00
23301;DHT22;11819;51.394;12.340;2022-07-26T12:24:38;24.40;51.20
23301;DHT22;11819;51.394;12.340;2022-07-26T12:29:51;24.30;51.60
23301;DHT22;11819;51.394;12.340;2022-07-26T12:32:19;24.30;51.80
23301;DHT22;11819;51.394;12.340;2022-07-26T12:35:11;24.20;52.10
23301;DHT22;11819;51.394;12.340;2022-07-26T12:37:48;24.20;52.20
23301;DHT22;11819;51.394;12.340;2022-07-26T12:40:23;24.20;52.30
23301;DHT22;11819;51.394;12.340;2022-07-26T12:45:21;24.20;52.70
23301;DHT22;11819;51.394;12.340;2022-07-26T12:47:48;24.20;53.00
23301;DHT22;11819;51.394;12.340;2022-07-26T12:50:16;24.10;53.20
23301;DHT22;11819;51.394;12.340;2022-07-26T12:52:42;24.10;53.60
23301;DHT22;11819;51.394;12.340;2022-07-26T12:55:11;24.00;53.80
23301;DHT22;11819;51.394;12.340;2022-07-26T12:57:39;24.00;53.90
23301;DHT22;11819;51.394;12.340;2022-07-26T13:00:06;23.90;53.50
23301;DHT22;11819;51.394;12.340;2022-07-26T13:02:33;23.90;53.50
23301;DHT22;11819;51.394;12.340;2022-07-26T13:05:00;24.00;53.40
23301;DHT22;11819;51.394;12.340;2022-07-26T13:07:26;24.00;53.30
23301;DHT22;11819;51.394;12.340;2022-07-26T13:09:52;24.10;53.10
23301;DHT22;11819;51.394;12.340;2022-07-26T13:12:17;24.20;52.30
23301;DHT22;11819;51.394;12.340;2022-07-26T13:14:43;24.30;52.00
23301;DHT22;11819;51.394;12.340;2022-07-26T13:17:09;24.40;52.10
23301;DHT22;11819;51.394;12.340;2022-07-26T13:19:36;24.50;52.30
23301;DHT22;11819;51.394;12.340;2022-07-26T13:22:03;24.50;51.30
23301;DHT22;11819;51.394;12.340;2022-07-26T13:24:31;24.50;51.70
23301;DHT22;11819;51.394;12.340;2022-07-26T13:26:57;24.40;52.70
23301;DHT22;11819;51.394;12.340;2022-07-26T13:29:23;24.10;54.70
23301;DHT22;11819;51.394;12.340;2022-07-26T13:31:49;23.90;55.90
23301;DHT22;11819;51.394;12.340;2022-07-26T13:34:21;23.70;57.00
23301;DHT22;11819;51.394;12.340;2022-07-26T13:36:49;23.40;58.40
23301;DHT22;11819;51.394;12.340;2022-07-26T13:39:16;23.10;59.30
23301;DHT22;11819;51.394;12.340;2022-07-26T13:41:41;22.90;60.40
23301;DHT22;11819;51.394;12.340;2022-07-26T13:44:07;22.80;61.10
23301;DHT22;11819;51.394;12.340;2022-07-26T13:46:32;22.70;62.20
23301;DHT22;11819;51.394;12.340;2022-07-26T13:49:00;22.60;62.40
23301;DHT22;11819;51.394;12.340;2022-07-26T13:51:28;22.60;62.70
23301;DHT22;11819;51.394;12.340;2022-07-26T13:54:13;22.60;62.80
23301;DHT22;11819;51.394;12.340;2022-07-26T13:56:39;22.60;63.30
23301;DHT22;11819;51.394;12.340;2022-07-26T13:59:05;22.50;63.80
23301;DHT22;11819;51.394;12.340;2022-07-26T14:01:32;22.50;64.00
23301;DHT22;11819;51.394;12.340;2022-07-26T14:03:58;22.50;64.30
23301;DHT22;11819;51.394;12.340;2022-07-26T14:06:23;22.60;64.50
23301;DHT22;11819;51.394;12.340;2022-07-26T14:08:51;22.70;64.50
23301;DHT22;11819;51.394;12.340;2022-07-26T14:11:16;22.80;64.40
23301;DHT22;11819;51.394;12.340;2022-07-26T14:13:42;22.90;64.40
23301;DHT22;11819;51.394;12.340;2022-07-26T14:16:07;23.00;64.30
23301;DHT22;11819;51.394;12.340;2022-07-26T14:18:34;23.20;64.10
23301;DHT22;11819;51.394;12.340;2022-07-26T14:21:00;23.30;63.60
23301;DHT22;11819;51.394;12.340;2022-07-26T14:23:26;23.40;62.70
23301;DHT22;11819;51.394;12.340;2022-07-26T14:25:52;23.50;61.60
23301;DHT22;11819;51.394;12.340;2022-07-26T14:28:18;23.50;60.90
23301;DHT22;11819;51.394;12.340;2022-07-26T14:30:44;23.50;60.40
23301;DHT22;11819;51.394;12.340;2022-07-26T14:33:09;23.40;60.20
23301;DHT22;11819;51.394;12.340;2022-07-26T14:35:35;23.40;59.90
23301;DHT22;11819;51.394;12.340;2022-07-26T14:38:00;23.40;59.90
23301;DHT22;11819;51.394;12.340;2022-07-26T14:40:26;23.30;59.90
23301;DHT22;11819;51.394;12.340;2022-07-26T14:42:51;23.30;60.10
23301;DHT22;11819;51.394;12.340;2022-07-26T14:45:17;23.40;60.30
23301;DHT22;11819;51.394;12.340;2022-07-26T14:47:43;23.40;60.10
23301;DHT22;11819;51.394;12.340;2022-07-26T14:50:10;23.50;59.90
23301;DHT22;11819;51.394;12.340;2022-07-26T14:52:38;23.60;59.90
23301;DHT22;11819;51.394;12.340;2022-07-26T14:55:05;23.50;59.30
23301;DHT22;11819;51.394;12.340;2022-07-26T14:57:31;23.50;59.30
23301;DHT22;11819;51.394;12.340;2022-07-26T14:59:56;23.50;59.20
23301;DHT22;11819;51.394;12.340;2022-07-26T15:02:23;23.40;59.10
23301;DHT22;11819;51.394;12.340;2022-07-26T15:04:49;23.40;59.10
23301;DHT22;11819;51.394;12.340;2022-07-26T15:07:14;23.40;59.30
23301;DHT22;11819;51.394;12.340;2022-07-26T15:09:40;23.50;59.40
23301;DHT22;11819;51.394;12.340;2022-07-26T15:12:06;23.50;59.30
23301;DHT22;11819;51.394;12.340;2022-07-26T15:14:31;23.50;59.10
23301;DHT22;11819;51.394;12.340;2022-07-26T15:16:57;23.40;59.00
23301;DHT22;11819;51.394;12.340;2022-07-26T15:19:23;23.40;59.10
23301;DHT22;11819;51.394;12.340;2022-07-26T15:21:50;23.30;59.10
23301;DHT22;11819;51.394;12.340;2022-07-26T15:24:17;23.30;59.30
23301;DHT22;11819;51.394;12.340;2022-07-26T15:26:42;23.30;59.30
23301;DHT22;11819;51.394;12.340;2022-07-26T15:29:08;23.30;59.30
23301;DHT22;11819;51.394;12.340;2022-07-26T15:31:34;23.30;59.20
23301;DHT22;11819;51.394;12.340;2022-07-26T15:33:59;23.40;59.30
23301;DHT22;11819;51.394;12.340;2022-07-26T15:36:25;23.40;59.10
23301;DHT22;11819;51.394;12.340;2022-07-26T15:38:50;23.50;59.10